Time;durP1;ratioP1;P1;durP2;ratioP2;P2;SDS_P1;SDS_P2;PMS_P1;PMS_P2;Temp;Humidity;BMP_temperature;BMP_pressure;BME280_temperature;BME280_humidity;BME280_pressure;Samples;Min_cycle;Max_cycle;Signal;HPM_P1;HPM_P2
2023/09/16 00:01:38;;;;;;;10.37;9.27;;;;;;;;;;5094691;28;20724;-72
2023/09/16 00:04:06;;;;;;;11.00;9.97;;;;;;;;;;5099512;28;20578;-72
2023/09/16 00:06:32;;;;;;;10.13;9.27;;;;;;;;;;5104030;28;20207;-71
2023/09/16 00:09:01;;;;;;;9.47;8.67;;;;;;;;;;5093833;28;20211;-71
2023/09/16 00:11:29;;;;;;;8.93;8.23;;;;;;;;;;5107022;28;20235;-72
2023/09/16 00:13:56;;;;;;;10.53;9.53;;;;;;;;;;5094619;28;20292;-71
2023/09/16 00:16:22;;;;;;;10.30;9.47;;;;;;;;;;5093887;28;20742;-71
2023/09/16 00:18:49;;;;;;;9.30;8.60;;;;;;;;;;5106697;28;20207;-71
2023/09/16 00:21:17;;;;;;;12.60;9.37;;;;;;;;;;5099940;28;20658;-71
2023/09/16 00:23:44;;;;;;;9.13;8.43;;;;;;;;;;5101518;28;20663;-71
2023/09/16 00:26:15;;;;;;;8.87;8.17;;;;;;;;;;5093398;28;20590;-71
2023/09/16 00:28:41;;;;;;;9.57;8.77;;;;;;;;;;5093980;28;20235;-71
2023/09/16 00:31:08;;;;;;;9.80;9.10;;;;;;;;;;5093172;28;20228;-72
2023/09/16 00:33:35;;;;;;;9.43;8.70;;;;;;;;;;5107201;28;20226;-71
2023/09/16 00:36:02;;;;;;;10.60;9.67;;;;;;;;;;5100290;28;20197;-71
2023/09/16 00:38:28;;;;;;;9.67;8.90;;;;;;;;;;5113640;28;20202;-72
2023/09/16 00:40:55;;;;;;;9.63;8.73;;;;;;;;;;5093603;28;20197;-71
2023/09/16 00:43:23;;;;;;;10.10;9.10;;;;;;;;;;5107792;28;20271;-71
2023/09/16 00:45:50;;;;;;;9.83;8.97;;;;;;;;;;5114083;28;20209;-71
2023/09/16 00:48:17;;;;;;;8.97;8.10;;;;;;;;;;5112915;28;20199;-71
2023/09/16 00:50:45;;;;;;;9.73;8.87;;;;;;;;;;5105645;28;20204;-71
2023/09/16 00:53:12;;;;;;;8.80;7.97;;;;;;;;;;5107194;28;20223;-71
2023/09/16 00:55:39;;;;;;;9.63;8.80;;;;;;;;;;5101648;28;20207;-71
2023/09/16 00:58:08;;;;;;;9.00;8.20;;;;;;;;;;5098082;28;20200;-71
2023/09/16 01:00:36;;;;;;;11.80;9.00;;;;;;;;;;5093116;28;20324;-71
2023/09/16 01:03:04;;;;;;;8.80;8.10;;;;;;;;;;5092781;28;20686;-71
2023/09/16 01:05:31;;;;;;;9.60;8.70;;;;;;;;;;5102834;28;20743;-71
2023/09/16 01:07:58;;;;;;;10.47;9.00;;;;;;;;;;5096668;28;20200;-71
2023/09/16 01:10:25;;;;;;;10.50;9.60;;;;;;;;;;5093261;28;20207;-71
2023/09/16 01:12:55;;;;;;;9.47;8.70;;;;;;;;;;5096184;28;20220;-71
2023/09/16 01:15:27;;;;;;;10.57;9.60;;;;;;;;;;5113434;28;20222;-71
2023/09/16 01:18:00;;;;;;;11.37;10.43;;;;;;;;;;5107369;28;20204;-71
2023/09/16 01:20:28;;;;;;;10.93;10.03;;;;;;;;;;5093691;28;20196;-71
2023/09/16 01:22:55;;;;;;;10.23;9.43;;;;;;;;;;5105998;28;20192;-71
2023/09/16 01:25:26;;;;;;;11.10;10.00;;;;;;;;;;5105363;28;20681;-71
2023/09/16 01:27:53;;;;;;;11.00;10.03;;;;;;;;;;5112638;28;20195;-71
2023/09/16 01:30:20;;;;;;;10.93;10.03;;;;;;;;;;5099255;28;20219;-71
2023/09/16 01:32:51;;;;;;;11.53;10.57;;;;;;;;;;5092623;28;20204;-71
2023/09/16 01:35:21;;;;;;;10.63;9.70;;;;;;;;;;5092251;28;20203;-71
2023/09/16 01:37:48;;;;;;;11.50;10.23;;;;;;;;;;5092814;28;20204;-71
2023/09/16 01:40:15;;;;;;;11.30;10.30;;;;;;;;;;5092777;28;20212;-71
2023/09/16 01:42:44;;;;;;;11.57;10.50;;;;;;;;;;5092103;28;20222;-71
2023/09/16 01:45:11;;;;;;;10.77;9.67;;;;;;;;;;5094711;28;20200;-71
2023/09/16 01:47:38;;;;;;;10.60;9.70;;;;;;;;;;5103361;28;20273;-71
2023/09/16 01:50:06;;;;;;;11.47;10.23;;;;;;;;;;5092267;28;20199;-71
2023/09/16 01:52:33;;;;;;;12.20;11.20;;;;;;;;;;5092398;28;20238;-71
2023/09/16 01:54:59;;;;;;;9.70;8.90;;;;;;;;;;5095361;28;20246;-71
2023/09/16 01:57:26;;;;;;;9.67;8.77;;;;;;;;;;5102266;28;20200;-71
2023/09/16 01:59:54;;;;;;;10.07;9.13;;;;;;;;;;5095484;28;20423;-71
2023/09/16 02:02:21;;;;;;;9.93;8.97;;;;;;;;;;5112463;28;20295;-71
2023/09/16 02:04:48;;;;;;;10.23;9.30;;;;;;;;;;5095044;28;20204;-71
2023/09/16 02:07:14;;;;;;;10.53;9.47;;;;;;;;;;5091574;28;20225;-71
2023/09/16 02:09:43;;;;;;;11.47;10.47;;;;;;;;;;5095918;28;20613;-71
2023/09/16 02:12:10;;;;;;;10.40;9.47;;;;;;;;;;5100624;28;20322;-71
2023/09/16 02:14:38;;;;;;;10.10;9.13;;;;;;;;;;5105321;28;20231;-71
2023/09/16 02:17:08;;;;;;;13.13;9.37;;;;;;;;;;5091388;28;20236;-72
2023/09/16 02:19:35;;;;;;;10.70;9.77;;;;;;;;;;5091913;28;20224;-71
2023/09/16 02:22:02;;;;;;;9.83;8.93;;;;;;;;;;5103004;28;20202;-71
2023/09/16 02:24:28;;;;;;;10.37;9.37;;;;;;;;;;5097624;28;20199;-71
2023/09/16 02:26:55;;;;;;;9.63;8.83;;;;;;;;;;5100369;28;20273;-71
2023/09/16 02:29:22;;;;;;;10.53;9.53;;;;;;;;;;5096827;28;20199;-71
2023/09/16 02:31:49;;;;;;;10.67;9.67;;;;;;;;;;5098890;28;20201;-71
2023/09/16 02:34:17;;;;;;;10.97;9.90;;;;;;;;;;5091551;28;20227;-71
2023/09/16 02:36:44;;;;;;;9.80;9.00;;;;;;;;;;5090882;28;20215;-71
2023/09/16 02:39:11;;;;;;;11.53;9.23;;;;;;;;;;5097912;28;20199;-72
2023/09/16 02:41:39;;;;;;;10.53;9.57;;;;;;;;;;5098259;28;20429;-71
2023/09/16 02:44:07;;;;;;;9.93;9.07;;;;;;;;;;5091413;28;20202;-72
2023/09/16 02:46:34;;;;;;;10.83;9.67;;;;;;;;;;5090571;28;20216;-71
2023/09/16 02:49:02;;;;;;;10.47;9.47;;;;;;;;;;5091377;28;20200;-71
2023/09/16 02:51:31;;;;;;;10.47;9.47;;;;;;;;;;5091153;28;20204;-71
2023/09/16 02:53:57;;;;;;;10.70;8.87;;;;;;;;;;5099285;28;20234;-71
2023/09/16 02:56:24;;;;;;;10.40;9.40;;;;;;;;;;5095944;28;20600;-71
2023/09/16 02:58:53;;;;;;;9.47;8.47;;;;;;;;;;5099920;28;20214;-71
2023/09/16 03:01:20;;;;;;;10.27;9.37;;;;;;;;;;5097372;28;20211;-71
2023/09/16 03:03:47;;;;;;;10.73;9.63;;;;;;;;;;5102499;28;20204;-71
2023/09/16 03:06:13;;;;;;;14.13;9.93;;;;;;;;;;5090649;28;20208;-71
2023/09/16 03:08:42;;;;;;;9.70;8.90;;;;;;;;;;5090983;28;20196;-71
2023/09/16 03:11:08;;;;;;;10.67;9.73;;;;;;;;;;5104206;28;20223;-72
2023/09/16 03:13:35;;;;;;;10.80;9.73;;;;;;;;;;5100521;28;20220;-71
2023/09/16 03:16:16;;;;;;;10.57;9.47;;;;;;;;;;5110362;28;20207;-71
2023/09/16 03:18:45;;;;;;;9.83;9.03;;;;;;;;;;5099288;28;20678;-72
2023/09/16 03:21:12;;;;;;;11.73;10.20;;;;;;;;;;5095522;28;20195;-71
2023/09/16 03:23:39;;;;;;;10.03;9.00;;;;;;;;;;5099182;28;20204;-72
2023/09/16 03:26:08;;;;;;;10.80;9.80;;;;;;;;;;5095233;28;20660;-71
2023/09/16 03:28:34;;;;;;;10.30;9.20;;;;;;;;;;5099245;28;20204;-71
2023/09/16 03:31:01;;;;;;;9.23;8.43;;;;;;;;;;5096228;28;20199;-71
2023/09/16 03:33:28;;;;;;;9.50;8.60;;;;;;;;;;5110745;28;20711;-71
2023/09/16 03:35:55;;;;;;;14.77;10.03;;;;;;;;;;5091672;28;20208;-71
2023/09/16 03:38:21;;;;;;;12.27;10.20;;;;;;;;;;5090412;28;20704;-71
2023/09/16 03:40:50;;;;;;;11.53;10.33;;;;;;;;;;5104535;28;20257;-71
2023/09/16 03:43:18;;;;;;;12.87;10.80;;;;;;;;;;5094706;28;20196;-71
2023/09/16 03:45:45;;;;;;;12.37;11.23;;;;;;;;;;5094623;28;20661;-72
2023/09/16 03:48:12;;;;;;;12.37;11.17;;;;;;;;;;5108665;28;20567;-72
2023/09/16 03:50:39;;;;;;;11.77;10.57;;;;;;;;;;5114746;28;20210;-72
2023/09/16 03:53:06;;;;;;;11.27;9.97;;;;;;;;;;5114160;28;20682;-72
2023/09/16 03:55:33;;;;;;;10.53;9.60;;;;;;;;;;5094540;28;20227;-72
2023/09/16 03:58:01;;;;;;;11.67;10.07;;;;;;;;;;5094171;28;20208;-72
2023/09/16 04:00:29;;;;;;;10.73;9.63;;;;;;;;;;5098910;28;20196;-71
2023/09/16 04:02:56;;;;;;;12.33;9.90;;;;;;;;;;5103598;28;20211;-71
2023/09/16 04:05:23;;;;;;;11.27;10.23;;;;;;;;;;5114710;28;20199;-71
2023/09/16 04:07:49;;;;;;;11.13;10.00;;;;;;;;;;5103855;28;20259;-72
2023/09/16 04:10:16;;;;;;;10.87;9.87;;;;;;;;;;5093984;28;20230;-72
2023/09/16 04:12:43;;;;;;;10.97;9.93;;;;;;;;;;5093793;28;20216;-72
2023/09/16 04:15:10;;;;;;;10.13;9.33;;;;;;;;;;5094191;28;20582;-72
2023/09/16 04:17:38;;;;;;;10.00;9.20;;;;;;;;;;5105276;28;20192;-71
2023/09/16 04:20:06;;;;;;;14.57;10.47;;;;;;;;;;5096247;28;20196;-71
2023/09/16 04:22:34;;;;;;;12.47;11.27;;;;;;;;;;5107215;28;20207;-72
2023/09/16 04:25:01;;;;;;;11.97;10.63;;;;;;;;;;5103340;28;20678;-71
2023/09/16 04:27:28;;;;;;;12.03;10.73;;;;;;;;;;5097290;28;20215;-71
2023/09/16 04:29:54;;;;;;;15.53;11.67;;;;;;;;;;5094162;28;20317;-72
2023/09/16 04:32:21;;;;;;;14.33;12.30;;;;;;;;;;5096521;28;20218;-76
2023/09/16 04:34:49;;;;;;;11.47;9.60;;;;;;;;;;5114084;28;20231;-76
2023/09/16 04:37:16;;;;;;;12.47;11.20;;;;;;;;;;5110905;28;20200;-76
2023/09/16 04:39:43;;;;;;;11.20;10.00;;;;;;;;;;5093680;28;20654;-76
2023/09/16 04:42:10;;;;;;;10.50;8.97;;;;;;;;;;5096645;28;20235;-76
2023/09/16 04:44:38;;;;;;;9.07;8.17;;;;;;;;;;5103609;28;20207;-76
2023/09/16 04:47:07;;;;;;;11.00;9.37;;;;;;;;;;5104124;28;20199;-75
2023/09/16 04:49:34;;;;;;;10.20;9.30;;;;;;;;;;5096662;28;20204;-75
2023/09/16 04:52:04;;;;;;;9.67;8.77;;;;;;;;;;5113358;28;20282;-76
2023/09/16 04:54:31;;;;;;;12.17;11.07;;;;;;;;;;5108119;28;20223;-76
2023/09/16 04:56:58;;;;;;;11.80;10.60;;;;;;;;;;5104676;28;20211;-76
2023/09/16 04:59:25;;;;;;;11.70;10.60;;;;;;;;;;5104304;28;20207;-76
2023/09/16 05:01:52;;;;;;;14.63;13.23;;;;;;;;;;5113160;28;20590;-76
2023/09/16 05:04:19;;;;;;;14.87;12.70;;;;;;;;;;5110314;28;20223;-76
2023/09/16 05:06:47;;;;;;;16.70;13.23;;;;;;;;;;5112208;28;20249;-76
2023/09/16 05:09:15;;;;;;;15.03;13.53;;;;;;;;;;5093518;28;20196;-75
2023/09/16 05:11:44;;;;;;;13.87;12.40;;;;;;;;;;5092633;28;20228;-76
2023/09/16 05:14:11;;;;;;;13.23;11.87;;;;;;;;;;5101661;28;20276;-76
2023/09/16 05:16:38;;;;;;;13.03;11.83;;;;;;;;;;5110679;28;20195;-76
2023/09/16 05:19:04;;;;;;;12.80;11.50;;;;;;;;;;5102214;28;20200;-76
2023/09/16 05:21:31;;;;;;;13.00;11.77;;;;;;;;;;5092576;28;20204;-76
2023/09/16 05:23:58;;;;;;;12.67;11.53;;;;;;;;;;5092504;28;20239;-76
2023/09/16 05:26:26;;;;;;;12.53;11.33;;;;;;;;;;5092604;28;20568;-76
2023/09/16 05:28:53;;;;;;;12.10;10.07;;;;;;;;;;5094183;28;20200;-76
2023/09/16 05:31:20;;;;;;;10.87;9.77;;;;;;;;;;5112807;28;20195;-76
2023/09/16 05:33:47;;;;;;;11.53;10.53;;;;;;;;;;5112759;28;20200;-76
2023/09/16 05:36:14;;;;;;;12.67;9.63;;;;;;;;;;5112319;28;20701;-76
2023/09/16 05:38:40;;;;;;;10.27;9.37;;;;;;;;;;5099459;28;20220;-76
2023/09/16 05:41:07;;;;;;;11.03;9.10;;;;;;;;;;5103324;28;20197;-76
2023/09/16 05:43:36;;;;;;;13.90;10.47;;;;;;;;;;5105937;28;20637;-76
2023/09/16 05:46:06;;;;;;;11.50;10.40;;;;;;;;;;5102095;28;20195;-76
2023/09/16 05:48:33;;;;;;;11.67;10.70;;;;;;;;;;5109007;28;20197;-76
2023/09/16 05:51:02;;;;;;;11.33;10.13;;;;;;;;;;5092345;28;20219;-76
2023/09/16 05:53:31;;;;;;;11.07;10.10;;;;;;;;;;5092062;28;20224;-76
2023/09/16 05:55:57;;;;;;;14.33;10.33;;;;;;;;;;5092235;28;20259;-76
2023/09/16 05:58:26;;;;;;;11.40;10.40;;;;;;;;;;5110064;28;20583;-76
2023/09/16 06:00:57;;;;;;;10.27;9.27;;;;;;;;;;5100454;28;20595;-76
2023/09/16 06:03:25;;;;;;;10.23;9.40;;;;;;;;;;5091747;28;20211;-76
2023/09/16 06:05:57;;;;;;;10.40;9.50;;;;;;;;;;5090795;28;20215;-75
2023/09/16 06:08:24;;;;;;;11.57;10.00;;;;;;;;;;5091999;28;20212;-75
2023/09/16 06:10:51;;;;;;;11.57;10.33;;;;;;;;;;5091530;28;20697;-76
2023/09/16 06:13:17;;;;;;;10.13;9.13;;;;;;;;;;5111923;28;20712;-75
2023/09/16 06:15:44;;;;;;;10.37;9.47;;;;;;;;;;5111460;28;20223;-75
2023/09/16 06:18:12;;;;;;;10.40;9.30;;;;;;;;;;5098428;28;20195;-75
2023/09/16 06:20:40;;;;;;;11.33;10.17;;;;;;;;;;5112229;28;20211;-75
2023/09/16 06:23:06;;;;;;;9.70;8.80;;;;;;;;;;5111694;28;20584;-75
2023/09/16 06:25:34;;;;;;;10.50;9.60;;;;;;;;;;5093288;28;20204;-76
2023/09/16 06:28:03;;;;;;;9.80;8.90;;;;;;;;;;5098186;28;20287;-79
2023/09/16 06:30:30;;;;;;;11.53;9.33;;;;;;;;;;5111384;28;20207;-80
2023/09/16 06:32:57;;;;;;;10.10;9.27;;;;;;;;;;5111771;28;20199;-78
2023/09/16 06:35:26;;;;;;;10.37;9.33;;;;;;;;;;5111407;28;20223;-79
2023/09/16 06:37:52;;;;;;;9.90;9.00;;;;;;;;;;5111224;28;20204;-79
2023/09/16 06:40:19;;;;;;;8.83;8.13;;;;;;;;;;5111097;28;20204;-77
2023/09/16 06:42:46;;;;;;;9.50;8.70;;;;;;;;;;5111625;28;20211;-76
2023/09/16 06:45:13;;;;;;;10.47;9.37;;;;;;;;;;5111370;28;20685;-77
2023/09/16 06:47:40;;;;;;;9.87;8.93;;;;;;;;;;5107868;28;20261;-76
2023/09/16 06:50:08;;;;;;;9.67;8.77;;;;;;;;;;5109191;28;20212;-76
2023/09/16 06:52:37;;;;;;;8.57;7.37;;;;;;;;;;5107805;28;20203;-76
2023/09/16 06:55:07;;;;;;;8.73;7.93;;;;;;;;;;5110857;28;20222;-76
2023/09/16 06:57:34;;;;;;;8.20;7.00;;;;;;;;;;5109908;28;20199;-76
2023/09/16 07:00:00;;;;;;;8.00;7.30;;;;;;;;;;5102727;28;20208;-76
2023/09/16 07:02:27;;;;;;;7.67;6.97;;;;;;;;;;5109560;28;20200;-76
2023/09/16 07:04:55;;;;;;;8.47;6.73;;;;;;;;;;5111593;28;20199;-76
2023/09/16 07:07:23;;;;;;;7.07;6.37;;;;;;;;;;5091140;28;20296;-76
2023/09/16 07:09:53;;;;;;;7.00;6.30;;;;;;;;;;5090796;28;20208;-76
2023/09/16 07:12:24;;;;;;;7.57;6.83;;;;;;;;;;5090590;28;20242;-76
2023/09/16 07:14:51;;;;;;;7.60;6.80;;;;;;;;;;5104426;28;20227;-76
2023/09/16 07:17:17;;;;;;;9.10;8.20;;;;;;;;;;5097391;28;20208;-76
2023/09/16 07:19:44;;;;;;;7.63;6.87;;;;;;;;;;5099575;28;20677;-76
2023/09/16 07:22:11;;;;;;;7.30;6.73;;;;;;;;;;5090731;28;20261;-76
2023/09/16 07:24:38;;;;;;;7.33;6.73;;;;;;;;;;5106749;28;20204;-76
2023/09/16 07:27:06;;;;;;;8.73;7.33;;;;;;;;;;5090215;28;20257;-76
2023/09/16 07:29:33;;;;;;;7.23;6.53;;;;;;;;;;5104600;28;20276;-76
2023/09/16 07:32:00;;;;;;;7.03;6.43;;;;;;;;;;5103721;28;20666;-76
2023/09/16 07:34:27;;;;;;;8.07;7.37;;;;;;;;;;5090333;28;20674;-76
2023/09/16 07:36:53;;;;;;;8.23;6.90;;;;;;;;;;5104240;28;20697;-76
2023/09/16 07:39:20;;;;;;;7.33;6.60;;;;;;;;;;5110908;28;20204;-76
2023/09/16 07:41:47;;;;;;;8.60;6.53;;;;;;;;;;5096216;28;20261;-75
2023/09/16 07:44:15;;;;;;;6.97;6.37;;;;;;;;;;5090754;28;20207;-76
2023/09/16 07:46:42;;;;;;;11.40;8.17;;;;;;;;;;5104093;28;20264;-76
2023/09/16 07:49:09;;;;;;;7.87;7.23;;;;;;;;;;5090535;28;20686;-76
2023/09/16 07:51:39;;;;;;;9.03;8.10;;;;;;;;;;5090286;28;20208;-76
2023/09/16 07:54:07;;;;;;;7.87;7.07;;;;;;;;;;5090454;28;20236;-76
2023/09/16 07:56:33;;;;;;;10.77;7.17;;;;;;;;;;5089919;28;20327;-76
2023/09/16 07:59:00;;;;;;;10.43;7.87;;;;;;;;;;5090466;28;20759;-76
2023/09/16 08:01:29;;;;;;;7.53;6.83;;;;;;;;;;5098199;28;20203;-76
2023/09/16 08:03:55;;;;;;;8.40;7.13;;;;;;;;;;5102414;28;20210;-76
2023/09/16 08:06:22;;;;;;;7.70;6.73;;;;;;;;;;5102398;28;20652;-76
2023/09/16 08:08:50;;;;;;;6.70;5.93;;;;;;;;;;5091488;28;20693;-76
2023/09/16 08:11:17;;;;;;;7.70;6.83;;;;;;;;;;5101659;28;20254;-76
2023/09/16 08:13:43;;;;;;;8.40;6.60;;;;;;;;;;5091472;28;20580;-76
2023/09/16 08:16:11;;;;;;;7.47;6.77;;;;;;;;;;5110413;28;20235;-76
2023/09/16 08:18:39;;;;;;;8.47;7.30;;;;;;;;;;5094557;28;20200;-76
2023/09/16 08:21:05;;;;;;;7.40;6.87;;;;;;;;;;5089713;28;20630;-76
2023/09/16 08:23:33;;;;;;;10.60;7.33;;;;;;;;;;5089881;28;20254;-76
2023/09/16 08:25:59;;;;;;;9.57;7.60;;;;;;;;;;5092109;28;20197;-76
2023/09/16 08:28:26;;;;;;;9.13;8.33;;;;;;;;;;5109236;28;20203;-76
2023/09/16 08:30:53;;;;;;;8.97;8.23;;;;;;;;;;5112823;28;20618;-75
2023/09/16 08:33:20;;;;;;;13.83;7.97;;;;;;;;;;5113879;28;20205;-76
2023/09/16 08:35:48;;;;;;;8.83;7.97;;;;;;;;;;5108853;28;20220;-76
2023/09/16 08:38:15;;;;;;;8.90;8.07;;;;;;;;;;5105717;28;20203;-76
2023/09/16 08:40:41;;;;;;;7.20;6.53;;;;;;;;;;5100733;28;20203;-76
2023/09/16 08:43:14;;;;;;;7.43;6.83;;;;;;;;;;5113439;28;20207;-76
2023/09/16 08:45:45;;;;;;;7.40;6.77;;;;;;;;;;5113815;28;20214;-76
2023/09/16 08:48:14;;;;;;;8.07;7.27;;;;;;;;;;5097573;28;20204;-76
2023/09/16 08:50:42;;;;;;;8.60;7.70;;;;;;;;;;5093314;28;20409;-75
2023/09/16 08:53:11;;;;;;;8.03;7.13;;;;;;;;;;5093253;28;20620;-75
2023/09/16 08:55:38;;;;;;;8.90;8.00;;;;;;;;;;5094646;28;20285;-75
2023/09/16 08:58:07;;;;;;;8.37;6.73;;;;;;;;;;5104580;28;20204;-75
2023/09/16 09:00:34;;;;;;;7.03;6.33;;;;;;;;;;5103979;28;20738;-75
2023/09/16 09:03:01;;;;;;;6.97;6.37;;;;;;;;;;5093049;28;20215;-75
2023/09/16 09:05:28;;;;;;;6.90;6.30;;;;;;;;;;5096131;28;20212;-75
2023/09/16 09:07:55;;;;;;;7.10;6.53;;;;;;;;;;5113549;28;20260;-75
2023/09/16 09:10:23;;;;;;;6.53;5.93;;;;;;;;;;5096992;28;20204;-75
2023/09/16 09:12:50;;;;;;;6.77;6.20;;;;;;;;;;5092402;28;20228;-74
2023/09/16 09:15:17;;;;;;;6.70;6.10;;;;;;;;;;5105499;28;20232;-76
2023/09/16 09:17:46;;;;;;;7.43;6.00;;;;;;;;;;5107911;28;20200;-75
2023/09/16 09:20:15;;;;;;;7.17;6.47;;;;;;;;;;5100687;28;20196;-75
2023/09/16 09:22:43;;;;;;;7.37;6.23;;;;;;;;;;5098214;28;20203;-76
2023/09/16 09:25:10;;;;;;;6.77;6.13;;;;;;;;;;5112017;28;20260;-76
2023/09/16 09:27:38;;;;;;;13.13;7.13;;;;;;;;;;5092674;28;20208;-76
2023/09/16 09:30:06;;;;;;;7.40;6.77;;;;;;;;;;5106279;28;20211;-75
2023/09/16 09:32:33;;;;;;;7.35;6.72;;;;;;;;;;5092288;28;20646;-76
2023/09/16 09:35:05;;;;;;;7.30;6.70;;;;;;;;;;5094626;28;20625;-76
2023/09/16 09:37:32;;;;;;;7.73;6.43;;;;;;;;;;5112500;28;20204;-76
2023/09/16 09:40:10;;;;;;;6.77;6.03;;;;;;;;;;5095371;28;20200;-76
2023/09/16 09:42:43;;;;;;;7.77;6.97;;;;;;;;;;5092351;28;20204;-76
2023/09/16 09:45:10;;;;;;;7.60;5.97;;;;;;;;;;5109794;28;20199;-76
2023/09/16 09:47:37;;;;;;;6.90;6.20;;;;;;;;;;5103232;28;20669;-76
2023/09/16 09:50:07;;;;;;;8.43;6.47;;;;;;;;;;5091984;28;20203;-75
2023/09/16 09:52:34;;;;;;;7.60;6.77;;;;;;;;;;5105235;28;20219;-76
2023/09/16 09:55:02;;;;;;;6.53;5.93;;;;;;;;;;5092202;28;20678;-77
2023/09/16 09:57:28;;;;;;;7.50;6.60;;;;;;;;;;5103101;28;20701;-76
2023/09/16 09:59:58;;;;;;;7.27;6.40;;;;;;;;;;5100147;28;20204;-76
2023/09/16 10:02:26;;;;;;;6.70;6.00;;;;;;;;;;5104450;28;20208;-76
2023/09/16 10:04:58;;;;;;;9.80;7.77;;;;;;;;;;5102161;28;20253;-77
2023/09/16 10:07:25;;;;;;;9.23;8.33;;;;;;;;;;5098326;28;20207;-77
2023/09/16 10:09:52;;;;;;;8.40;7.60;;;;;;;;;;5112060;28;20208;-77
2023/09/16 10:12:19;;;;;;;9.93;8.13;;;;;;;;;;5093675;28;20273;-76
2023/09/16 10:14:46;;;;;;;9.23;8.40;;;;;;;;;;5102104;28;20196;-76
2023/09/16 10:17:14;;;;;;;9.30;8.40;;;;;;;;;;5111662;28;20226;-76
2023/09/16 10:19:41;;;;;;;9.30;8.20;;;;;;;;;;5106440;28;20566;-75
2023/09/16 10:22:10;;;;;;;10.10;9.20;;;;;;;;;;5091290;28;20250;-75
2023/09/16 10:24:37;;;;;;;12.57;8.93;;;;;;;;;;5091587;28;20674;-75
2023/09/16 10:27:10;;;;;;;10.93;7.77;;;;;;;;;;5104647;28;20203;-75
2023/09/16 10:29:38;;;;;;;8.70;7.90;;;;;;;;;;5091241;28;20208;-75
2023/09/16 10:32:05;;;;;;;9.57;8.10;;;;;;;;;;5091527;28;20196;-75
2023/09/16 10:34:38;;;;;;;18.10;12.03;;;;;;;;;;5091363;28;20200;-75
2023/09/16 10:37:05;;;;;;;11.57;9.60;;;;;;;;;;5090774;28;20722;-75
2023/09/16 10:39:33;;;;;;;9.00;8.13;;;;;;;;;;5091257;28;20258;-75
2023/09/16 10:42:00;;;;;;;9.80;7.57;;;;;;;;;;5107795;28;20192;-75
2023/09/16 10:44:27;;;;;;;10.00;8.20;;;;;;;;;;5100116;28;20674;-75
2023/09/16 10:46:55;;;;;;;8.00;7.20;;;;;;;;;;5102579;28;20572;-75
2023/09/16 10:49:22;;;;;;;9.07;8.17;;;;;;;;;;5091207;28;20212;-76
2023/09/16 10:51:51;;;;;;;9.70;7.47;;;;;;;;;;5103751;28;20674;-76
2023/09/16 10:54:22;;;;;;;8.47;7.77;;;;;;;;;;5104623;28;20196;-75
2023/09/16 10:56:49;;;;;;;8.93;8.00;;;;;;;;;;5110502;28;20613;-75
2023/09/16 10:59:18;;;;;;;8.37;7.37;;;;;;;;;;5111638;28;20230;-75
2023/09/16 11:01:48;;;;;;;7.80;7.20;;;;;;;;;;5111179;28;20206;-75
2023/09/16 11:04:16;;;;;;;7.93;6.83;;;;;;;;;;5111592;28;20209;-75
2023/09/16 11:06:47;;;;;;;8.83;7.83;;;;;;;;;;5111187;28;20211;-75
2023/09/16 11:09:16;;;;;;;9.00;8.10;;;;;;;;;;5110823;28;20233;-75
2023/09/16 11:11:45;;;;;;;7.53;6.60;;;;;;;;;;5110937;28;20238;-76
2023/09/16 11:14:12;;;;;;;9.03;7.20;;;;;;;;;;5111111;28;20199;-75
2023/09/16 11:16:45;;;;;;;8.13;7.33;;;;;;;;;;5111257;28;20219;-75
2023/09/16 11:19:15;;;;;;;6.83;6.23;;;;;;;;;;5109377;28;20673;-75
2023/09/16 11:21:43;;;;;;;7.57;6.87;;;;;;;;;;5099851;28;20196;-75
2023/09/16 11:24:10;;;;;;;10.40;8.00;;;;;;;;;;5097317;28;20207;-76
2023/09/16 11:26:38;;;;;;;7.80;7.07;;;;;;;;;;5110800;28;20200;-76
2023/09/16 11:29:16;;;;;;;7.03;6.43;;;;;;;;;;5110755;28;20196;-75
2023/09/16 11:31:43;;;;;;;6.23;5.73;;;;;;;;;;5110806;28;20234;-76
2023/09/16 11:34:11;;;;;;;8.17;7.40;;;;;;;;;;5111099;28;20217;-76
2023/09/16 11:36:42;;;;;;;7.47;6.80;;;;;;;;;;5110606;28;20313;-76
2023/09/16 11:39:18;;;;;;;7.73;6.77;;;;;;;;;;5110920;28;20199;-76
2023/09/16 11:41:46;;;;;;;7.57;7.07;;;;;;;;;;5110355;28;20583;-76
2023/09/16 11:44:13;;;;;;;7.47;6.77;;;;;;;;;;5110690;28;20256;-76
2023/09/16 11:46:40;;;;;;;8.43;7.13;;;;;;;;;;5110881;28;20195;-76
2023/09/16 11:49:07;;;;;;;7.33;6.23;;;;;;;;;;5110951;28;20203;-76
2023/09/16 11:51:35;;;;;;;7.10;6.50;;;;;;;;;;5110152;28;20200;-77
2023/09/16 11:54:03;;;;;;;7.63;7.03;;;;;;;;;;5110860;28;20674;-76
2023/09/16 11:56:34;;;;;;;8.27;6.75;;;;;;;;;;5110555;28;20254;-76
2023/09/16 11:59:04;;;;;;;6.75;6.25;;;;;;;;;;5110526;28;20200;-76
2023/09/16 12:01:33;;;;;;;7.45;6.85;;;;;;;;;;5107395;28;20196;-76
2023/09/16 12:04:01;;;;;;;7.28;6.65;;;;;;;;;;5112830;28;20273;-76
2023/09/16 12:06:28;;;;;;;8.60;5.95;;;;;;;;;;5103053;28;20214;-76
2023/09/16 12:08:56;;;;;;;7.22;6.63;;;;;;;;;;5114395;28;20639;-75
2023/09/16 12:11:23;;;;;;;8.20;7.47;;;;;;;;;;5098451;28;20315;-76
2023/09/16 12:13:50;;;;;;;13.82;7.95;;;;;;;;;;5094652;28;20258;-76
2023/09/16 12:16:18;;;;;;;7.43;6.17;;;;;;;;;;5096559;28;20234;-76
2023/09/16 12:18:45;;;;;;;7.47;6.60;;;;;;;;;;5104330;28;20204;-76
2023/09/16 12:21:12;;;;;;;8.43;6.83;;;;;;;;;;5093276;28;20555;-76
2023/09/16 12:23:40;;;;;;;7.03;6.40;;;;;;;;;;5093845;28;20228;-76
2023/09/16 12:26:09;;;;;;;7.40;6.67;;;;;;;;;;5093441;28;20193;-77
2023/09/16 12:28:36;;;;;;;8.17;7.47;;;;;;;;;;5094079;28;20200;-76
2023/09/16 12:31:07;;;;;;;7.30;6.70;;;;;;;;;;5097609;28;20627;-76
2023/09/16 12:33:46;;;;;;;7.53;6.93;;;;;;;;;;5103034;28;20208;-76
2023/09/16 12:36:16;;;;;;;8.93;7.40;;;;;;;;;;5099327;28;20206;-76
2023/09/16 12:38:43;;;;;;;7.70;6.90;;;;;;;;;;5099403;28;20261;-76
2023/09/16 12:41:12;;;;;;;7.83;7.03;;;;;;;;;;5093472;28;20654;-75
2023/09/16 12:43:39;;;;;;;7.17;6.47;;;;;;;;;;5107715;28;20195;-76
2023/09/16 12:46:08;;;;;;;9.50;8.53;;;;;;;;;;5111951;28;20286;-75
2023/09/16 12:48:35;;;;;;;7.13;6.43;;;;;;;;;;5099136;28;20200;-75
2023/09/16 12:51:05;;;;;;;8.20;7.50;;;;;;;;;;5111874;28;20196;-75
2023/09/16 12:53:31;;;;;;;8.43;7.73;;;;;;;;;;5100107;28;20196;-75
2023/09/16 12:55:58;;;;;;;8.60;7.80;;;;;;;;;;5112942;28;20206;-75
2023/09/16 12:58:25;;;;;;;9.30;8.13;;;;;;;;;;5110394;28;20713;-75
2023/09/16 13:00:52;;;;;;;8.67;7.77;;;;;;;;;;5102161;28;20211;-75
2023/09/16 13:03:19;;;;;;;7.83;7.13;;;;;;;;;;5112922;28;20240;-75
2023/09/16 13:05:49;;;;;;;8.70;7.97;;;;;;;;;;5113154;28;20207;-75
2023/09/16 13:08:19;;;;;;;10.93;7.60;;;;;;;;;;5096677;28;20200;-75
2023/09/16 13:10:47;;;;;;;10.00;9.07;;;;;;;;;;5092664;28;20207;-75
2023/09/16 13:13:14;;;;;;;11.93;8.77;;;;;;;;;;5106527;28;20204;-75
2023/09/16 13:15:43;;;;;;;9.63;8.60;;;;;;;;;;5092891;28;20196;-75
2023/09/16 13:18:10;;;;;;;10.80;8.60;;;;;;;;;;5097255;28;20223;-75
2023/09/16 13:20:40;;;;;;;8.70;8.00;;;;;;;;;;5100193;28;20566;-75
2023/09/16 13:23:07;;;;;;;9.27;8.30;;;;;;;;;;5092833;28;20254;-75
2023/09/16 13:25:38;;;;;;;8.40;7.70;;;;;;;;;;5106101;28;20207;-75
2023/09/16 13:28:12;;;;;;;8.70;7.90;;;;;;;;;;5100483;28;20195;-75
2023/09/16 13:30:40;;;;;;;8.87;8.00;;;;;;;;;;5110595;28;20214;-75
2023/09/16 13:33:08;;;;;;;8.67;7.87;;;;;;;;;;5102442;28;20227;-74
2023/09/16 13:35:36;;;;;;;9.57;8.77;;;;;;;;;;5098690;28;20677;-74
2023/09/16 13:38:05;;;;;;;8.77;7.90;;;;;;;;;;5102257;28;20227;-75
2023/09/16 13:40:32;;;;;;;8.63;7.93;;;;;;;;;;5092194;28;20207;-75
2023/09/16 13:43:01;;;;;;;10.47;8.17;;;;;;;;;;5103702;28;20590;-75
2023/09/16 13:45:28;;;;;;;8.80;7.90;;;;;;;;;;5094763;28;20204;-75
2023/09/16 13:48:09;;;;;;;9.40;8.63;;;;;;;;;;5091887;28;20753;-74
2023/09/16 13:50:36;;;;;;;9.13;8.00;;;;;;;;;;5092708;28;20201;-75
2023/09/16 13:53:03;;;;;;;11.23;7.77;;;;;;;;;;5105781;28;20207;-74
2023/09/16 13:55:30;;;;;;;8.03;7.17;;;;;;;;;;5104911;28;20623;-75
2023/09/16 13:57:57;;;;;;;7.93;7.33;;;;;;;;;;5092687;28;20220;-74
2023/09/16 14:00:25;;;;;;;7.73;6.80;;;;;;;;;;5104736;28;20208;-74
2023/09/16 14:02:52;;;;;;;9.23;7.57;;;;;;;;;;5092012;28;20204;-74
2023/09/16 14:05:19;;;;;;;8.03;7.20;;;;;;;;;;5100561;28;20293;-74
2023/09/16 14:07:46;;;;;;;8.13;7.43;;;;;;;;;;5111497;28;20618;-74
2023/09/16 14:10:13;;;;;;;7.70;7.00;;;;;;;;;;5111900;28;20210;-74
2023/09/16 14:12:40;;;;;;;7.70;7.10;;;;;;;;;;5098165;28;20225;-74
2023/09/16 14:15:07;;;;;;;7.63;6.87;;;;;;;;;;5102953;28;20200;-74
2023/09/16 14:17:36;;;;;;;9.03;8.13;;;;;;;;;;5105087;28;20284;-74
2023/09/16 14:20:03;;;;;;;10.23;7.13;;;;;;;;;;5092110;28;20577;-74
2023/09/16 14:22:30;;;;;;;8.27;7.47;;;;;;;;;;5093838;28;20200;-74
2023/09/16 14:24:57;;;;;;;22.13;7.93;;;;;;;;;;5103068;28;20216;-74
2023/09/16 14:27:24;;;;;;;9.83;6.83;;;;;;;;;;5090484;28;20254;-74
2023/09/16 14:29:51;;;;;;;10.20;7.07;;;;;;;;;;5101375;28;20200;-74
2023/09/16 14:32:18;;;;;;;8.33;7.23;;;;;;;;;;5111183;28;20239;-74
2023/09/16 14:34:46;;;;;;;7.33;6.70;;;;;;;;;;5102311;28;20200;-74
2023/09/16 14:37:13;;;;;;;6.97;6.37;;;;;;;;;;5107339;28;20231;-74
2023/09/16 14:39:40;;;;;;;7.67;6.97;;;;;;;;;;5101673;28;20208;-74